This is the latest recevied weather packets stored in our database for station/object K1ZK-13. If no packets are shown the sender has not sent any weather packets the latest 10 day(s).
| Time | Temp. | Humidity | Pressure | Rain* | Wind** | Luminosity | Snow |
|---|---|---|---|---|---|---|---|
| 1778085494 | 6.11° C | 99% | 1009.9 hPa | 1.27 mm | - | 73 W/m² | - |
| 1778085188 | 5.56° C | 99% | 1009.6 hPa | 3.05 mm | - | 93 W/m² | - |
| 1778084883 | 5.56° C | 99% | 1009.7 hPa | 3.05 mm | - | 104 W/m² | - |
| 1778084582 | 5.56° C | 99% | 1009.8 hPa | 1.27 mm | - | 103 W/m² | - |
| 1778084279 | 5.56° C | 99% | 1009.8 hPa | 7.87 mm | - | 69 W/m² | - |
| 1778083976 | 5.56° C | 99% | 1009.8 hPa | 7.87 mm | - | 69 W/m² | - |
| 1778082760 | 5.56° C | 99% | 1009.8 hPa | 1.27 mm | - | 52 W/m² | - |
| 1778064074 | 7.78° C | 99% | 1009.7 hPa | 0 mm | - | 4 W/m² | - |
| 1778063772 | 7.78° C | 99% | 1009.9 hPa | 19.81 mm | - | 4 W/m² | - |
| 1778063469 | 7.78° C | 99% | 1010.4 hPa | 19.81 mm | - | 4 W/m² | - |
| 1778052872 | 10.56° C | 99% | 1010.1 hPa | 16.76 mm | - | 0 W/m² | - |
| 1778052570 | 10.56° C | 99% | 1009.7 hPa | 16.76 mm | - | 0 W/m² | - |
| 1778052266 | 10.56° C | 99% | 1009.7 hPa | 16.76 mm | - | 0 W/m² | - |
| 1778036522 | 14.44° C | 72% | 1008.8 hPa | 0 mm | - | 0 W/m² | - |
| 1778036218 | 14.44° C | 72% | 1008.9 hPa | 0 mm | - | 0 W/m² | - |
| 1778035914 | 14.44° C | 72% | 1008.7 hPa | 0 mm | - | 0 W/m² | - |
| 1778035612 | 14.44° C | 71% | 1008.7 hPa | 0 mm | - | 0 W/m² | - |
| 1778035308 | 15° C | 71% | 1008.3 hPa | 0 mm | - | 0 W/m² | - |
| 1778035004 | 15° C | 70% | 1008.3 hPa | 0 mm | - | 0 W/m² | - |
| 1778034702 | 15° C | 70% | 1008.6 hPa | 0 mm | - | 0 W/m² | - |
| 1778034399 | 15° C | 71% | 1008.4 hPa | 0 mm | - | 0 W/m² | - |
| 1778034096 | 15° C | 73% | 1008.5 hPa | 0 mm | - | 0 W/m² | - |
| 1778033794 | 15.56° C | 77% | 1008.5 hPa | 0 mm | - | 0 W/m² | - |
| 1778033491 | 15.56° C | 84% | 1008.2 hPa | 0 mm | - | 0 W/m² | - |
| 1778033188 | 15.56° C | 88% | 1008 hPa | 1.27 mm | - | 0 W/m² | - |
* Rain latest hour (hover to see other rain measurements)
** Current wind speed in m/s (hover to see current wind gust speed)